F04 weather

CLOSED Saginaw Airport
Fort Worth, Texas, United States

Public forecast

Using degrees Fahrenheit for public forecast. Weather courtesy of forecast.io.

METAR (pilot weather report)

Closest report is Fort Worth Meacham International Airport, 2.7 nm (5.0 km) SSE. Retrieved 2019/07/17 04:36 UTC (0 seconds ago):

KFTW 170436Z 15008KT 2SM HZ FEW001 30/21 A2995 RMK AO2 VIS 1 1/4V5 T03000206

TAF (pilot weather forecast)

Forecast is more than 12 hours old.

Closest forecast is Fort Worth Meacham International Airport, 2.7 nm (5.0 km) SSE. Retrieved 2019/07/16 00:36 UTC (1 day ago):

TAF KFTW 162335Z 1700/1724 18012KT P6SM FEW060 SCT250